Time;durP1;ratioP1;P1;durP2;ratioP2;P2;SDS_P1;SDS_P2;PMS_P1;PMS_P2;Temp;Humidity;BMP_temperature;BMP_pressure;BME280_temperature;BME280_humidity;BME280_pressure;Samples;Min_cycle;Max_cycle;Signal;HPM_P1;HPM_P2
2023/09/27 00:00:56;;;;;;;12.20;9.00;;;;;;;;;;5000778;28;20216;-76
2023/09/27 00:03:22;;;;;;;10.10;8.87;;;;;;;;;;5000883;28;20189;-76
2023/09/27 00:05:48;;;;;;;10.53;9.03;;;;;;;;;;5000471;28;20189;-76
2023/09/27 00:08:14;;;;;;;10.03;8.73;;;;;;;;;;5017446;28;20307;-76
2023/09/27 00:10:40;;;;;;;10.60;9.27;;;;;;;;;;5001904;28;20257;-76
2023/09/27 00:13:06;;;;;;;10.27;9.23;;;;;;;;;;5000586;28;20204;-76
2023/09/27 00:15:32;;;;;;;9.70;8.67;;;;;;;;;;5001401;28;20223;-76
2023/09/27 00:17:58;;;;;;;10.57;9.57;;;;;;;;;;5016223;28;20208;-78
2023/09/27 00:20:24;;;;;;;14.00;10.33;;;;;;;;;;5017846;28;20212;-78
2023/09/27 00:22:52;;;;;;;11.30;9.10;;;;;;;;;;5034659;28;20208;-77
2023/09/27 00:25:19;;;;;;;12.43;9.50;;;;;;;;;;5017179;28;20192;-78
2023/09/27 00:27:45;;;;;;;10.07;9.07;;;;;;;;;;4999937;28;20220;-78
2023/09/27 00:30:14;;;;;;;9.80;8.80;;;;;;;;;;5015132;28;20192;-79
2023/09/27 00:32:40;;;;;;;14.00;10.10;;;;;;;;;;5023299;28;20195;-76
2023/09/27 00:35:12;;;;;;;10.97;9.50;;;;;;;;;;5018973;28;20184;-75
2023/09/27 00:37:38;;;;;;;10.10;9.10;;;;;;;;;;5018947;28;20188;-76
2023/09/27 00:40:10;;;;;;;12.10;9.40;;;;;;;;;;5016599;28;20208;-76
2023/09/27 00:42:36;;;;;;;11.60;9.87;;;;;;;;;;5019613;28;20185;-76
2023/09/27 00:45:03;;;;;;;10.73;9.63;;;;;;;;;;4993683;28;20200;-76
2023/09/27 00:47:29;;;;;;;11.03;9.93;;;;;;;;;;5015114;28;20217;-76
2023/09/27 00:49:55;;;;;;;10.53;9.43;;;;;;;;;;5033529;28;20206;-76
2023/09/27 00:52:21;;;;;;;11.50;10.33;;;;;;;;;;5035125;28;20180;-76
2023/09/27 00:54:47;;;;;;;11.80;10.50;;;;;;;;;;5017469;28;20188;-76
2023/09/27 00:57:13;;;;;;;11.30;10.17;;;;;;;;;;4996603;28;20259;-76
2023/09/27 00:59:39;;;;;;;13.77;9.90;;;;;;;;;;4996474;28;20189;-76
2023/09/27 01:02:06;;;;;;;11.67;10.43;;;;;;;;;;5013043;28;20191;-76
2023/09/27 01:04:32;;;;;;;11.77;10.40;;;;;;;;;;5002003;28;20188;-76
2023/09/27 01:06:59;;;;;;;13.63;10.17;;;;;;;;;;4993104;28;20193;-79
2023/09/27 01:09:25;;;;;;;13.07;9.33;;;;;;;;;;4996566;28;20276;-77
2023/09/27 01:11:52;;;;;;;10.60;9.63;;;;;;;;;;4996979;28;20204;-77
2023/09/27 01:14:18;;;;;;;11.30;9.37;;;;;;;;;;5014520;28;20181;-77
2023/09/27 01:16:44;;;;;;;11.40;9.10;;;;;;;;;;5013342;28;20189;-77
2023/09/27 01:19:10;;;;;;;10.27;9.13;;;;;;;;;;4997014;28;20221;-77
2023/09/27 01:21:36;;;;;;;10.17;9.10;;;;;;;;;;5012284;28;20216;-76
2023/09/27 01:24:06;;;;;;;10.63;9.53;;;;;;;;;;5009714;28;20193;-76
2023/09/27 01:26:33;;;;;;;10.77;9.67;;;;;;;;;;5007632;28;20189;-77
2023/09/27 01:28:59;;;;;;;14.50;9.73;;;;;;;;;;5008390;28;20248;-76
2023/09/27 01:31:25;;;;;;;12.20;9.50;;;;;;;;;;5013216;28;20204;-75
2023/09/27 01:33:51;;;;;;;10.93;9.20;;;;;;;;;;5012478;28;20193;-76
2023/09/27 01:36:17;;;;;;;10.70;9.63;;;;;;;;;;4995516;28;20216;-75
2023/09/27 01:38:43;;;;;;;12.50;10.70;;;;;;;;;;4996616;28;20215;-76
2023/09/27 01:41:09;;;;;;;11.63;10.43;;;;;;;;;;5012070;28;20292;-76
2023/09/27 01:43:35;;;;;;;11.40;10.27;;;;;;;;;;4996466;28;20283;-76
2023/09/27 01:46:01;;;;;;;11.40;10.30;;;;;;;;;;4996310;28;20188;-76
2023/09/27 01:48:27;;;;;;;10.67;9.67;;;;;;;;;;5012134;28;20213;-76
2023/09/27 01:50:53;;;;;;;11.60;10.37;;;;;;;;;;4996550;28;20186;-76
2023/09/27 01:53:19;;;;;;;13.50;10.97;;;;;;;;;;4996136;28;20189;-76
2023/09/27 01:55:47;;;;;;;11.00;10.00;;;;;;;;;;5011692;28;20189;-76
2023/09/27 01:58:13;;;;;;;13.87;10.63;;;;;;;;;;5012665;28;20232;-79
2023/09/27 02:00:39;;;;;;;11.67;10.50;;;;;;;;;;4996334;28;20189;-79
2023/09/27 02:03:05;;;;;;;11.83;10.43;;;;;;;;;;4998639;28;20193;-78
2023/09/27 02:05:31;;;;;;;12.77;10.90;;;;;;;;;;5026554;28;20192;-79
2023/09/27 02:07:57;;;;;;;13.60;10.43;;;;;;;;;;4996920;28;20205;-79
2023/09/27 02:10:24;;;;;;;11.20;10.10;;;;;;;;;;5013070;28;20200;-79
2023/09/27 02:12:50;;;;;;;11.30;10.20;;;;;;;;;;5012097;28;20193;-80
2023/09/27 02:15:16;;;;;;;11.40;10.30;;;;;;;;;;5011980;28;20181;-77
2023/09/27 02:17:43;;;;;;;11.03;10.03;;;;;;;;;;5012860;28;20267;-77
2023/09/27 02:20:10;;;;;;;10.63;9.63;;;;;;;;;;4993183;28;20197;-77
2023/09/27 02:22:37;;;;;;;11.07;9.97;;;;;;;;;;5008766;28;20193;-77
2023/09/27 02:25:04;;;;;;;11.73;10.53;;;;;;;;;;4996585;28;20213;-77
2023/09/27 02:27:30;;;;;;;11.83;10.67;;;;;;;;;;5011321;28;20213;-77
2023/09/27 02:29:56;;;;;;;11.57;10.37;;;;;;;;;;4995326;28;20182;-77
2023/09/27 02:32:22;;;;;;;13.03;10.90;;;;;;;;;;5011678;28;20240;-77
2023/09/27 02:34:48;;;;;;;11.70;10.60;;;;;;;;;;4995692;28;20228;-77
2023/09/27 02:37:15;;;;;;;11.17;9.43;;;;;;;;;;5012515;28;20191;-77
2023/09/27 02:39:42;;;;;;;11.43;10.33;;;;;;;;;;5012691;28;20211;-77
2023/09/27 02:42:08;;;;;;;11.57;10.37;;;;;;;;;;4994800;28;20182;-77
2023/09/27 02:44:35;;;;;;;12.47;9.70;;;;;;;;;;4997385;28;20239;-77
2023/09/27 02:47:02;;;;;;;11.37;10.17;;;;;;;;;;5015961;28;20190;-77
2023/09/27 02:49:28;;;;;;;12.10;10.70;;;;;;;;;;5017025;28;20181;-76
2023/09/27 02:51:55;;;;;;;12.03;10.77;;;;;;;;;;5000416;28;20185;-76
2023/09/27 02:54:21;;;;;;;12.33;10.97;;;;;;;;;;5018359;28;20181;-76
2023/09/27 02:56:47;;;;;;;12.50;11.20;;;;;;;;;;5036258;28;20224;-76
2023/09/27 02:59:13;;;;;;;13.77;10.77;;;;;;;;;;5027705;28;20228;-76
2023/09/27 03:01:40;;;;;;;13.70;10.37;;;;;;;;;;5032499;28;20231;-76
2023/09/27 03:04:06;;;;;;;13.37;11.13;;;;;;;;;;5017013;28;20181;-79
2023/09/27 03:06:33;;;;;;;11.70;10.60;;;;;;;;;;5024548;28;20185;-79
2023/09/27 03:08:59;;;;;;;11.77;10.57;;;;;;;;;;5019694;28;20208;-78
2023/09/27 03:11:25;;;;;;;14.50;10.60;;;;;;;;;;5018904;28;20288;-77
2023/09/27 03:13:51;;;;;;;14.27;11.10;;;;;;;;;;5000254;28;20241;-77
2023/09/27 03:16:17;;;;;;;13.33;11.57;;;;;;;;;;5031460;28;20193;-77
2023/09/27 03:18:43;;;;;;;12.60;11.20;;;;;;;;;;5017190;28;20190;-77
2023/09/27 03:21:09;;;;;;;11.70;10.60;;;;;;;;;;5015852;28;20193;-79
2023/09/27 03:23:35;;;;;;;11.33;10.13;;;;;;;;;;4999663;28;20281;-79
2023/09/27 03:26:03;;;;;;;11.30;10.30;;;;;;;;;;5016969;28;20208;-79
2023/09/27 03:28:29;;;;;;;12.80;11.50;;;;;;;;;;5022563;28;20204;-79
2023/09/27 03:30:55;;;;;;;14.47;11.57;;;;;;;;;;5036182;28;20236;-78
2023/09/27 03:33:21;;;;;;;13.77;12.10;;;;;;;;;;5009968;28;20196;-79
2023/09/27 03:35:47;;;;;;;14.00;12.53;;;;;;;;;;5007883;28;20181;-78
2023/09/27 03:38:13;;;;;;;14.57;13.10;;;;;;;;;;5017178;28;20239;-79
2023/09/27 03:40:42;;;;;;;12.90;11.70;;;;;;;;;;5017240;28;20256;-76
2023/09/27 03:43:08;;;;;;;15.30;12.20;;;;;;;;;;5015778;28;20271;-76
2023/09/27 03:45:37;;;;;;;13.10;11.80;;;;;;;;;;5015853;28;20192;-75
2023/09/27 03:48:04;;;;;;;14.10;12.70;;;;;;;;;;5015313;28;20271;-76
2023/09/27 03:50:30;;;;;;;13.30;11.90;;;;;;;;;;5020303;28;20189;-76
2023/09/27 03:52:56;;;;;;;13.20;11.93;;;;;;;;;;5015314;28;20185;-76
2023/09/27 03:55:22;;;;;;;13.23;11.77;;;;;;;;;;5028488;28;20189;-76
2023/09/27 03:57:48;;;;;;;13.33;12.03;;;;;;;;;;5022965;23;20229;-78
2023/09/27 04:00:16;;;;;;;13.67;12.37;;;;;;;;;;5014620;28;20198;-79
2023/09/27 04:02:43;;;;;;;13.27;12.07;;;;;;;;;;5013331;28;20271;-76
2023/09/27 04:05:09;;;;;;;13.57;12.17;;;;;;;;;;4996587;28;20243;-76
2023/09/27 04:07:35;;;;;;;13.93;12.30;;;;;;;;;;5014087;28;20205;-76
2023/09/27 04:10:02;;;;;;;13.60;12.17;;;;;;;;;;5021773;28;20189;-76
2023/09/27 04:12:28;;;;;;;15.87;14.03;;;;;;;;;;4999904;28;20181;-77
2023/09/27 04:14:54;;;;;;;15.73;14.20;;;;;;;;;;4998355;28;20196;-77
2023/09/27 04:17:20;;;;;;;16.17;14.47;;;;;;;;;;5017974;28;20189;-78
2023/09/27 04:19:46;;;;;;;14.97;13.47;;;;;;;;;;4995557;28;20185;-76
2023/09/27 04:22:12;;;;;;;14.73;13.23;;;;;;;;;;5002462;28;20177;-76
2023/09/27 04:24:38;;;;;;;16.87;13.83;;;;;;;;;;4998353;28;20185;-76
2023/09/27 04:27:04;;;;;;;16.00;14.30;;;;;;;;;;5015974;28;20178;-76
2023/09/27 04:29:30;;;;;;;16.90;15.30;;;;;;;;;;5012623;28;20193;-76
2023/09/27 04:31:56;;;;;;;15.73;14.13;;;;;;;;;;4998607;28;20186;-76
2023/09/27 04:34:23;;;;;;;17.53;15.83;;;;;;;;;;4998385;28;20245;-75
2023/09/27 04:36:50;;;;;;;13.18;11.68;;;;;;;;;;4996544;28;20464;-76
2023/09/27 04:39:18;;;;;;;15.93;14.33;;;;;;;;;;5013602;28;20178;-76
2023/09/27 04:41:46;;;;;;;17.27;15.57;;;;;;;;;;5015126;28;20260;-76
2023/09/27 04:44:12;;;;;;;18.27;15.57;;;;;;;;;;4998235;28;20210;-79
2023/09/27 04:46:38;;;;;;;17.23;15.43;;;;;;;;;;4997465;28;20189;-79
2023/09/27 04:49:04;;;;;;;19.43;15.83;;;;;;;;;;4994128;28;20225;-78
2023/09/27 04:51:30;;;;;;;16.67;14.97;;;;;;;;;;5011581;28;20189;-78
2023/09/27 04:54:00;;;;;;;18.03;16.13;;;;;;;;;;5012971;28;20188;-78
2023/09/27 04:56:27;;;;;;;17.00;15.30;;;;;;;;;;5008944;28;20228;-77
2023/09/27 04:58:53;;;;;;;17.33;15.50;;;;;;;;;;5010864;28;20252;-78
2023/09/27 05:01:19;;;;;;;18.23;16.35;;;;;;;;;;5012932;28;20550;-79
2023/09/27 05:03:45;;;;;;;17.33;15.63;;;;;;;;;;5013516;28;20193;-79
2023/09/27 05:06:11;;;;;;;17.50;15.63;;;;;;;;;;5013687;28;20188;-79
2023/09/27 05:08:37;;;;;;;18.13;16.33;;;;;;;;;;5013388;28;20208;-79
2023/09/27 05:11:03;;;;;;;18.97;17.07;;;;;;;;;;4996852;28;20185;-79
2023/09/27 05:13:29;;;;;;;18.27;16.27;;;;;;;;;;4996996;28;20181;-80
2023/09/27 05:15:55;;;;;;;19.10;17.20;;;;;;;;;;4997356;28;20189;-76
2023/09/27 05:18:23;;;;;;;17.43;15.83;;;;;;;;;;5013864;28;20272;-79
2023/09/27 05:20:50;;;;;;;17.97;16.17;;;;;;;;;;5013516;28;20196;-76
2023/09/27 05:23:15;;;;;;;19.00;15.97;;;;;;;;;;5013631;28;20269;-76
2023/09/27 05:25:41;;;;;;;18.63;16.77;;;;;;;;;;4997370;28;20272;-77
2023/09/27 05:28:09;;;;;;;19.87;17.77;;;;;;;;;;5011763;28;20213;-78
2023/09/27 05:30:35;;;;;;;20.10;17.00;;;;;;;;;;4995037;28;20170;-77
2023/09/27 05:33:01;;;;;;;19.50;17.67;;;;;;;;;;4995094;28;20178;-78
2023/09/27 05:35:27;;;;;;;18.77;16.73;;;;;;;;;;4977751;28;20186;-76
2023/09/27 05:37:53;;;;;;;22.80;18.60;;;;;;;;;;4977983;28;20197;-76
2023/09/27 05:40:19;;;;;;;19.90;17.83;;;;;;;;;;4994033;28;20182;-77
2023/09/27 05:42:45;;;;;;;19.80;17.83;;;;;;;;;;4977378;28;20244;-78
2023/09/27 05:45:11;;;;;;;20.13;18.07;;;;;;;;;;4993530;28;20197;-78
2023/09/27 05:47:38;;;;;;;19.83;17.70;;;;;;;;;;4993558;28;20276;-78
2023/09/27 05:50:04;;;;;;;19.80;17.70;;;;;;;;;;4994748;28;20233;-77
2023/09/27 05:52:31;;;;;;;20.37;18.23;;;;;;;;;;4993728;28;20269;-77
2023/09/27 05:54:57;;;;;;;20.57;18.53;;;;;;;;;;4994428;28;20220;-77
2023/09/27 05:57:23;;;;;;;19.00;17.20;;;;;;;;;;5003922;28;20237;-77
2023/09/27 05:59:50;;;;;;;19.83;17.83;;;;;;;;;;4993751;28;20209;-76
2023/09/27 06:02:16;;;;;;;19.27;17.40;;;;;;;;;;4993552;28;20189;-76
2023/09/27 06:04:51;;;;;;;19.83;17.87;;;;;;;;;;4993708;28;20190;-76
2023/09/27 06:07:18;;;;;;;20.03;18.03;;;;;;;;;;5009667;28;20185;-76
2023/09/27 06:09:45;;;;;;;19.73;17.70;;;;;;;;;;5010121;28;20240;-78
2023/09/27 06:12:12;;;;;;;19.70;17.80;;;;;;;;;;4994805;28;20197;-78
2023/09/27 06:14:38;;;;;;;20.87;18.83;;;;;;;;;;4993514;28;20244;-77
2023/09/27 06:17:05;;;;;;;21.20;19.03;;;;;;;;;;5009830;28;20189;-77
2023/09/27 06:19:32;;;;;;;22.43;20.13;;;;;;;;;;4995005;28;20184;-77
2023/09/27 06:21:58;;;;;;;22.07;19.70;;;;;;;;;;5013608;28;20244;-78
2023/09/27 06:24:27;;;;;;;22.27;20.00;;;;;;;;;;4997724;28;20182;-76
2023/09/27 06:26:54;;;;;;;22.33;20.23;;;;;;;;;;5013579;28;20189;-76
2023/09/27 06:29:20;;;;;;;22.20;19.90;;;;;;;;;;5013609;28;20292;-75
2023/09/27 06:31:47;;;;;;;22.70;20.47;;;;;;;;;;5013556;28;20182;-76
2023/09/27 06:34:14;;;;;;;18.77;16.07;;;;;;;;;;4997896;28;20272;-76
2023/09/27 06:36:42;;;;;;;23.00;20.60;;;;;;;;;;4997542;28;20207;-76
2023/09/27 06:39:12;;;;;;;23.90;21.37;;;;;;;;;;5013407;28;20182;-76
2023/09/27 06:41:39;;;;;;;25.47;23.07;;;;;;;;;;4997713;28;20193;-79
2023/09/27 06:44:06;;;;;;;29.10;23.63;;;;;;;;;;4997037;28;20212;-79
2023/09/27 06:46:32;;;;;;;25.97;23.43;;;;;;;;;;5013267;28;20214;-79
2023/09/27 06:48:59;;;;;;;27.93;25.13;;;;;;;;;;4996996;28;20217;-79
2023/09/27 06:51:25;;;;;;;29.00;26.10;;;;;;;;;;4996936;28;20182;-79
2023/09/27 06:53:52;;;;;;;29.93;26.80;;;;;;;;;;4997999;28;20170;-79
2023/09/27 06:56:18;;;;;;;29.43;26.63;;;;;;;;;;5015635;28;20328;-79
2023/09/27 06:58:44;;;;;;;29.10;26.23;;;;;;;;;;5019489;28;20276;-75
2023/09/27 07:01:11;;;;;;;28.90;26.10;;;;;;;;;;5012103;28;20194;-76
2023/09/27 07:03:37;;;;;;;28.23;25.53;;;;;;;;;;5019579;28;20184;-79
2023/09/27 07:06:03;;;;;;;27.73;25.33;;;;;;;;;;4997746;28;20208;-78
2023/09/27 07:08:29;;;;;;;28.67;25.77;;;;;;;;;;5012380;28;20299;-78
2023/09/27 07:11:03;;;;;;;27.73;25.03;;;;;;;;;;5015835;28;20241;-78
2023/09/27 07:13:30;;;;;;;27.63;24.83;;;;;;;;;;5036938;28;20180;-80
2023/09/27 07:15:56;;;;;;;27.73;25.13;;;;;;;;;;5028252;28;20185;-79
2023/09/27 07:18:23;;;;;;;29.03;26.40;;;;;;;;;;4995187;28;20187;-80
2023/09/27 07:20:50;;;;;;;30.33;27.23;;;;;;;;;;4987151;28;20185;-79
2023/09/27 07:23:16;;;;;;;29.00;26.10;;;;;;;;;;5036015;28;20190;-76
2023/09/27 07:25:43;;;;;;;28.20;25.37;;;;;;;;;;5002607;28;20257;-77
2023/09/27 07:28:09;;;;;;;28.87;26.07;;;;;;;;;;5026122;28;20259;-76
2023/09/27 07:30:36;;;;;;;26.70;24.20;;;;;;;;;;4983256;28;20185;-77
2023/09/27 07:33:11;;;;;;;26.70;24.40;;;;;;;;;;4999409;28;20174;-76
2023/09/27 07:35:44;;;;;;;27.80;25.20;;;;;;;;;;4999394;28;20177;-79
2023/09/27 07:38:13;;;;;;;26.73;24.07;;;;;;;;;;4999711;28;20177;-79
2023/09/27 07:40:40;;;;;;;26.97;24.30;;;;;;;;;;5016734;28;20173;-79
2023/09/27 07:43:06;;;;;;;28.77;26.03;;;;;;;;;;4999569;28;20273;-78
2023/09/27 07:45:35;;;;;;;28.13;25.47;;;;;;;;;;4999688;28;20185;-78
2023/09/27 07:48:01;;;;;;;29.23;26.33;;;;;;;;;;4999153;28;20248;-80
2023/09/27 07:50:28;;;;;;;27.23;24.73;;;;;;;;;;4999185;28;20181;-81
2023/09/27 07:52:55;;;;;;;29.60;26.47;;;;;;;;;;4999134;28;20178;-80
2023/09/27 07:55:21;;;;;;;29.47;26.67;;;;;;;;;;5016631;28;20169;-80
2023/09/27 07:57:47;;;;;;;31.33;28.10;;;;;;;;;;4981919;28;20238;-80
2023/09/27 08:00:15;;;;;;;31.27;28.37;;;;;;;;;;5027336;28;20316;-80
2023/09/27 08:02:42;;;;;;;29.63;26.83;;;;;;;;;;4996003;28;20193;-80
2023/09/27 08:05:11;;;;;;;29.97;27.23;;;;;;;;;;4996871;28;20174;-78
2023/09/27 08:07:38;;;;;;;28.97;26.13;;;;;;;;;;4979346;28;20212;-77
2023/09/27 08:10:04;;;;;;;28.90;26.10;;;;;;;;;;4996426;28;20197;-77
2023/09/27 08:12:31;;;;;;;29.23;26.07;;;;;;;;;;4995440;28;20170;-77
2023/09/27 08:15:03;;;;;;;26.93;24.33;;;;;;;;;;4995890;28;20186;-77
2023/09/27 08:17:30;;;;;;;27.77;24.97;;;;;;;;;;4995267;28;20193;-77
2023/09/27 08:19:56;;;;;;;27.43;24.33;;;;;;;;;;4995336;28;20178;-77
2023/09/27 08:22:22;;;;;;;27.57;23.83;;;;;;;;;;4979108;28;20198;-80
2023/09/27 08:24:48;;;;;;;26.30;23.80;;;;;;;;;;4996561;28;20178;-80
2023/09/27 08:27:14;;;;;;;26.37;23.13;;;;;;;;;;4979161;28;20186;-81
2023/09/27 08:29:40;;;;;;;24.90;22.27;;;;;;;;;;4979189;28;20186;-81
2023/09/27 08:32:06;;;;;;;23.27;21.07;;;;;;;;;;4981071;28;20185;-80
2023/09/27 08:34:33;;;;;;;23.23;21.03;;;;;;;;;;4978874;28;20283;-81
2023/09/27 08:36:59;;;;;;;22.10;19.97;;;;;;;;;;4996238;28;20166;-80
2023/09/27 08:39:25;;;;;;;21.97;19.90;;;;;;;;;;4978641;28;20221;-77
2023/09/27 08:41:53;;;;;;;19.97;18.07;;;;;;;;;;4978340;28;20248;-77
2023/09/27 08:44:19;;;;;;;19.53;17.63;;;;;;;;;;4994671;28;20205;-77
2023/09/27 08:46:45;;;;;;;19.80;17.90;;;;;;;;;;4994585;28;20186;-77
2023/09/27 08:49:12;;;;;;;18.67;16.67;;;;;;;;;;4994675;28;20206;-77
2023/09/27 08:51:39;;;;;;;19.53;17.50;;;;;;;;;;5008167;28;20181;-77
2023/09/27 08:54:06;;;;;;;18.03;16.23;;;;;;;;;;5014395;28;20188;-79
2023/09/27 08:56:32;;;;;;;18.40;16.57;;;;;;;;;;5014207;28;20309;-80
2023/09/27 08:58:59;;;;;;;17.27;15.27;;;;;;;;;;5013888;28;20219;-80
2023/09/27 09:01:26;;;;;;;17.00;15.30;;;;;;;;;;4997912;28;20182;-81
2023/09/27 09:03:52;;;;;;;17.63;15.17;;;;;;;;;;5015107;28;20192;-81
2023/09/27 09:06:19;;;;;;;15.63;14.03;;;;;;;;;;5014034;28;20177;-81
2023/09/27 09:08:46;;;;;;;15.60;13.70;;;;;;;;;;4993418;28;20218;-81
2023/09/27 09:11:16;;;;;;;15.83;12.80;;;;;;;;;;4995363;28;20178;-78
2023/09/27 09:13:56;;;;;;;14.90;13.40;;;;;;;;;;4994285;28;20181;-78
2023/09/27 09:16:23;;;;;;;13.73;12.43;;;;;;;;;;4995216;28;20174;-78
2023/09/27 09:18:52;;;;;;;14.60;11.77;;;;;;;;;;4994347;28;20265;-78
2023/09/27 09:21:21;;;;;;;16.00;13.07;;;;;;;;;;4994195;28;20273;-78
2023/09/27 09:23:49;;;;;;;17.80;12.23;;;;;;;;;;4979252;28;20186;-78
2023/09/27 09:26:29;;;;;;;14.57;13.13;;;;;;;;;;5000468;28;20190;-78
2023/09/27 09:28:56;;;;;;;16.20;12.00;;;;;;;;;;5014099;28;20208;-78
2023/09/27 09:31:23;;;;;;;13.18;11.75;;;;;;;;;;4997133;28;20182;-78
2023/09/27 09:34:10;;;;;;;14.85;11.93;;;;;;;;;;5013515;28;20196;-78
2023/09/27 09:36:39;;;;;;;15.45;13.02;;;;;;;;;;5012686;28;20403;-78
2023/09/27 09:39:16;;;;;;;13.40;12.02;;;;;;;;;;4997533;28;20272;-78
2023/09/27 09:41:49;;;;;;;15.65;12.25;;;;;;;;;;4998296;28;20239;-78
2023/09/27 09:44:22;;;;;;;14.75;12.82;;;;;;;;;;5012793;28;20181;-81
2023/09/27 09:46:49;;;;;;;16.00;13.23;;;;;;;;;;5014552;28;20228;-81
2023/09/27 09:49:15;;;;;;;14.45;12.73;;;;;;;;;;5014254;28;20201;-81
2023/09/27 09:51:46;;;;;;;16.15;13.57;;;;;;;;;;5013323;28;20200;-81
2023/09/27 09:54:13;;;;;;;15.05;13.18;;;;;;;;;;5014435;28;20188;-81
2023/09/27 09:56:40;;;;;;;15.10;12.70;;;;;;;;;;5035474;23;20236;-80
2023/09/27 09:59:09;;;;;;;13.50;12.05;;;;;;;;;;5020446;28;20215;-78
2023/09/27 10:01:39;;;;;;;12.00;10.80;;;;;;;;;;5035760;28;20415;-80
2023/09/27 10:04:05;;;;;;;10.90;9.77;;;;;;;;;;5051887;28;20214;-78
2023/09/27 10:06:32;;;;;;;11.52;10.43;;;;;;;;;;5053414;28;20412;-77
2023/09/27 10:09:01;;;;;;;12.37;10.30;;;;;;;;;;5019653;28;20442;-77
2023/09/27 10:11:27;;;;;;;12.63;11.00;;;;;;;;;;5019270;28;20424;-78
2023/09/27 10:13:53;;;;;;;11.02;9.27;;;;;;;;;;5036684;28;20183;-78
2023/09/27 10:16:23;;;;;;;14.52;10.40;;;;;;;;;;5036065;28;20176;-78
2023/09/27 10:18:49;;;;;;;11.18;9.80;;;;;;;;;;5020244;28;20495;-78
2023/09/27 10:21:15;;;;;;;13.50;10.38;;;;;;;;;;5036338;28;20179;-78
2023/09/27 10:23:47;;;;;;;12.13;10.80;;;;;;;;;;5036644;28;20237;-78
2023/09/27 10:26:29;;;;;;;14.35;11.93;;;;;;;;;;5036204;28;20187;-78
2023/09/27 10:29:01;;;;;;;12.82;11.50;;;;;;;;;;5035269;28;20431;-78
2023/09/27 10:31:37;;;;;;;12.10;10.90;;;;;;;;;;5035606;28;20405;-78
2023/09/27 10:34:24;;;;;;;12.23;11.02;;;;;;;;;;5036492;28;20175;-78
2023/09/27 10:36:50;;;;;;;12.52;9.60;;;;;;;;;;5042976;28;20191;-78
2023/09/27 10:39:17;;;;;;;12.07;10.88;;;;;;;;;;5018719;28;20408;-78
2023/09/27 10:41:44;;;;;;;12.90;11.70;;;;;;;;;;5019340;28;20487;-78
2023/09/27 10:44:12;;;;;;;13.77;11.90;;;;;;;;;;5019432;28;20443;-78
2023/09/27 10:46:45;;;;;;;11.45;10.20;;;;;;;;;;5053583;28;20400;-78
2023/09/27 10:49:12;;;;;;;11.55;10.45;;;;;;;;;;5019541;28;20298;-78
2023/09/27 10:51:38;;;;;;;10.50;9.60;;;;;;;;;;5035636;28;20474;-80
2023/09/27 10:54:08;;;;;;;10.82;9.35;;;;;;;;;;5034919;28;20412;-80
2023/09/27 10:56:35;;;;;;;10.77;9.13;;;;;;;;;;5052180;28;20438;-81
2023/09/27 10:59:02;;;;;;;11.93;8.95;;;;;;;;;;5036056;28;20430;-81
2023/09/27 11:01:28;;;;;;;10.98;8.23;;;;;;;;;;5035755;28;20225;-81
2023/09/27 11:03:58;;;;;;;9.30;8.30;;;;;;;;;;5031693;28;21108;-81
2023/09/27 11:06:24;;;;;;;11.50;8.10;;;;;;;;;;5018090;28;20245;-81
2023/09/27 11:08:50;;;;;;;9.25;8.35;;;;;;;;;;5003145;28;20429;-81
2023/09/27 11:11:16;;;;;;;10.20;8.57;;;;;;;;;;5002792;28;20417;-78
2023/09/27 11:13:43;;;;;;;8.23;7.10;;;;;;;;;;5003098;28;20177;-78
2023/09/27 11:16:18;;;;;;;10.77;7.88;;;;;;;;;;5003072;28;20184;-78
2023/09/27 11:18:45;;;;;;;8.73;7.37;;;;;;;;;;5018416;28;20424;-78
2023/09/27 11:21:11;;;;;;;10.02;7.30;;;;;;;;;;5036711;28;20203;-78
2023/09/27 11:23:53;;;;;;;11.40;8.20;;;;;;;;;;5036897;28;20186;-78
2023/09/27 11:26:22;;;;;;;10.23;8.25;;;;;;;;;;5036759;28;20177;-81
2023/09/27 11:29:03;;;;;;;9.60;8.60;;;;;;;;;;5019253;28;20235;-81
2023/09/27 11:31:30;;;;;;;9.95;8.35;;;;;;;;;;5018402;28;20421;-81
2023/09/27 11:34:16;;;;;;;9.50;8.60;;;;;;;;;;5019114;28;20199;-81
2023/09/27 11:36:42;;;;;;;9.77;8.10;;;;;;;;;;5018077;28;20390;-78
2023/09/27 11:39:09;;;;;;;9.05;8.15;;;;;;;;;;5002216;28;20413;-78
2023/09/27 11:41:35;;;;;;;10.35;9.35;;;;;;;;;;5002475;28;20409;-78
2023/09/27 11:44:14;;;;;;;12.93;10.35;;;;;;;;;;5001723;28;20402;-78
2023/09/27 11:46:40;;;;;;;10.93;9.77;;;;;;;;;;5018135;28;20420;-78
2023/09/27 11:49:09;;;;;;;11.45;8.75;;;;;;;;;;5001748;28;20433;-78
2023/09/27 11:51:36;;;;;;;12.48;10.70;;;;;;;;;;5001912;28;20410;-78
2023/09/27 11:54:05;;;;;;;11.30;10.15;;;;;;;;;;5017897;28;20404;-78
2023/09/27 11:56:32;;;;;;;12.98;10.93;;;;;;;;;;5017733;28;20437;-78
2023/09/27 11:58:58;;;;;;;11.13;9.98;;;;;;;;;;5018729;28;20280;-81
2023/09/27 12:01:24;;;;;;;12.68;11.40;;;;;;;;;;5002059;28;20452;-81
2023/09/27 12:03:50;;;;;;;9.75;8.38;;;;;;;;;;5034839;28;20406;-81
2023/09/27 12:06:17;;;;;;;8.75;7.13;;;;;;;;;;5017916;28;20410;-81
2023/09/27 12:08:43;;;;;;;8.77;7.93;;;;;;;;;;5017528;28;20434;-81
2023/09/27 12:11:09;;;;;;;10.82;8.80;;;;;;;;;;5002571;28;20177;-81
2023/09/27 12:13:35;;;;;;;9.93;8.68;;;;;;;;;;5018731;28;20169;-81
2023/09/27 12:16:01;;;;;;;11.23;10.23;;;;;;;;;;5002440;28;20180;-78
2023/09/27 12:18:27;;;;;;;11.27;10.02;;;;;;;;;;5017702;28;20188;-78
2023/09/27 12:20:53;;;;;;;13.30;10.43;;;;;;;;;;5018501;28;20271;-81
2023/09/27 12:23:19;;;;;;;10.35;8.55;;;;;;;;;;5018097;28;20215;-81
2023/09/27 12:25:45;;;;;;;10.50;9.40;;;;;;;;;;5018229;28;20187;-81
2023/09/27 12:28:11;;;;;;;10.00;8.20;;;;;;;;;;5001951;28;20200;-81
2023/09/27 12:30:38;;;;;;;11.00;9.57;;;;;;;;;;5001959;28;20183;-81
2023/09/27 12:33:04;;;;;;;10.27;8.63;;;;;;;;;;5001832;28;20184;-80
2023/09/27 12:35:31;;;;;;;9.75;8.35;;;;;;;;;;5001347;28;20275;-80
2023/09/27 12:37:59;;;;;;;11.10;9.38;;;;;;;;;;5001797;28;20177;-80
2023/09/27 12:40:25;;;;;;;9.10;7.70;;;;;;;;;;5001447;28;20184;-80
2023/09/27 12:42:51;;;;;;;9.23;8.13;;;;;;;;;;5017990;28;20180;-78
2023/09/27 12:45:17;;;;;;;10.60;9.40;;;;;;;;;;5001584;28;20331;-77
2023/09/27 12:47:43;;;;;;;11.43;10.27;;;;;;;;;;5017920;28;20209;-78
2023/09/27 12:50:09;;;;;;;10.35;9.25;;;;;;;;;;5018106;28;20169;-78
2023/09/27 12:52:35;;;;;;;11.65;8.80;;;;;;;;;;5017521;28;20176;-78
2023/09/27 12:55:01;;;;;;;9.10;8.18;;;;;;;;;;5035119;28;20231;-80
2023/09/27 12:57:27;;;;;;;9.57;8.70;;;;;;;;;;4998495;28;20252;-80
2023/09/27 12:59:53;;;;;;;8.77;7.88;;;;;;;;;;5014618;28;20169;-80
2023/09/27 13:02:20;;;;;;;8.82;7.45;;;;;;;;;;4998357;28;20185;-81
2023/09/27 13:04:46;;;;;;;10.75;8.27;;;;;;;;;;4999359;28;20212;-77
2023/09/27 13:07:13;;;;;;;10.23;8.15;;;;;;;;;;5014382;28;20173;-77
2023/09/27 13:09:39;;;;;;;8.95;7.68;;;;;;;;;;4998810;28;20209;-78
2023/09/27 13:12:05;;;;;;;10.43;8.13;;;;;;;;;;5014246;28;20177;-80
2023/09/27 13:14:31;;;;;;;10.40;8.07;;;;;;;;;;5014274;28;20179;-80
2023/09/27 13:16:57;;;;;;;8.32;7.53;;;;;;;;;;4997932;28;20264;-80
2023/09/27 13:19:23;;;;;;;9.25;8.30;;;;;;;;;;4998184;28;20196;-79
2023/09/27 13:21:49;;;;;;;8.20;7.40;;;;;;;;;;4998724;28;20189;-78
2023/09/27 13:24:15;;;;;;;8.65;7.85;;;;;;;;;;4997604;28;20188;-77
2023/09/27 13:26:41;;;;;;;9.07;8.18;;;;;;;;;;5014533;28;20184;-77
2023/09/27 13:29:07;;;;;;;9.57;8.60;;;;;;;;;;4997302;28;20209;-77
2023/09/27 13:31:34;;;;;;;10.43;9.38;;;;;;;;;;5012642;28;20185;-77
2023/09/27 13:34:00;;;;;;;11.77;9.50;;;;;;;;;;5012920;28;20178;-77
2023/09/27 13:36:29;;;;;;;9.88;8.65;;;;;;;;;;4997094;28;20213;-77
2023/09/27 13:38:56;;;;;;;13.65;10.07;;;;;;;;;;4997683;28;20177;-80
2023/09/27 13:41:22;;;;;;;10.82;9.45;;;;;;;;;;4997056;28;20181;-80
2023/09/27 13:43:49;;;;;;;11.02;9.88;;;;;;;;;;4997567;28;20268;-80
2023/09/27 13:46:15;;;;;;;9.50;8.52;;;;;;;;;;5013578;28;20197;-80
2023/09/27 13:48:41;;;;;;;12.40;9.07;;;;;;;;;;4997095;28;20232;-80
2023/09/27 13:51:07;;;;;;;10.32;9.27;;;;;;;;;;4996402;28;20411;-80
2023/09/27 13:53:33;;;;;;;10.02;8.73;;;;;;;;;;5012718;28;20407;-80
2023/09/27 13:55:59;;;;;;;10.25;7.53;;;;;;;;;;4997436;28;20184;-80
2023/09/27 13:58:25;;;;;;;8.13;6.55;;;;;;;;;;5013459;28;20322;-80
2023/09/27 14:00:52;;;;;;;9.45;6.82;;;;;;;;;;5013843;28;20192;-80
2023/09/27 14:03:19;;;;;;;8.13;6.45;;;;;;;;;;4997213;28;20263;-80
2023/09/27 14:05:45;;;;;;;7.22;6.30;;;;;;;;;;5013577;28;20192;-80
2023/09/27 14:08:11;;;;;;;7.05;5.65;;;;;;;;;;4997096;28;20209;-80
2023/09/27 14:10:37;;;;;;;5.68;5.18;;;;;;;;;;4996820;28;20173;-80
2023/09/27 14:13:03;;;;;;;5.80;4.82;;;;;;;;;;4996993;28;20181;-78
2023/09/27 14:15:29;;;;;;;6.95;5.55;;;;;;;;;;4997162;28;20189;-78
2023/09/27 14:17:55;;;;;;;6.60;5.90;;;;;;;;;;5011977;28;20438;-78
2023/09/27 14:20:21;;;;;;;8.52;5.90;;;;;;;;;;4996800;28;20181;-78
2023/09/27 14:22:47;;;;;;;6.65;5.78;;;;;;;;;;4997483;28;20185;-78